MUC | München Airways

 METAR UND TAF INFORMATION

METAR FOR LESU
ADDS - METARS form results

(1556 UTC 05 June 2020)
Data provider http://aviationweather.gov/metar/data/
 
METAR text: LESU 051530Z 21011KT 180V240 9999 SCT075 23/09 Q1009
Conditions at: LESU (LA SEU , ES) observed 1530 UTC 05 June 2020
Temperature: 23.0°C (73°F)
Dewpoint: 9.0°C (48°F) [RH = 41%]
Pressure (altimeter): 29.79 inches Hg (1009.0 mb)
Winds: from the SSW (210 degrees) at 13 MPH (11 knots; 5.7 m/s)
Visibility: 6 or more miles (10+ km)
Ceiling: at least 12,000 feet AGL
Clouds: scattered clouds at 7500 feet AGL
Weather: no significant weather observed at this time

METAR text: LESU 051500Z 21012KT 9999 SCT070 23/09 Q1009
Conditions at: LESU (LA SEU , ES) observed 1500 UTC 05 June 2020
Temperature: 23.0°C (73°F)
Dewpoint: 9.0°C (48°F) [RH = 41%]
Pressure (altimeter): 29.79 inches Hg (1009.0 mb)
Winds: from the SSW (210 degrees) at 14 MPH (12 knots; 6.2 m/s)
Visibility: 6 or more miles (10+ km)
Ceiling: at least 12,000 feet AGL
Clouds: scattered clouds at 7000 feet AGL
Weather: no significant weather observed at this time

Forecast for: LESU (LA SEU , ES)
Text: TAF LESU 051400Z 0515/0615 VRB04KT 9999 FEW050 TX25/0613Z TN11/0606Z
Forecast period: 1500 UTC 05 June 2020 to 0800 UTC 06 June 2020
Forecast type: FROM: standard forecast or significant change
Winds: variable direction winds at 5 MPH (4 knots; 2.1 m/s)
Visibility: 6 or more miles 10+ km)
Ceiling: at least 12,000 feet AGL
Clouds: few clouds at 5000 feet AGL
Weather: no significant weather forecast for this period
Text: BECMG 0608/0610 18012KT
Forecast period: 0800 to 1500 UTC 06 June 2020
Forecast type: BECOMING: Conditions expected to become as follows by 1000 UTC 06 June 2020
Winds: from the S (180 degrees) at 14 MPH (12 knots; 6.2 m/s)
Visibility: 6 or more miles 10+ km)
Ceiling: at least 12,000 feet AGL
Clouds: few clouds at 5000 feet AGL
Weather: no significant weather forecast for this period

 FLUGHAFENKARTE

 RUNWAY INFORMATION
Runway 04 Runway length 4396 ft Runway width 98 ft
Runway elevation 0 ft Runway displaced threshold 0 ft Runway heading 39
Runway 22 Runway length 4396 ft Runway width 98 ft
Runway elevation 0 ft Runway displaced threshold 0 ft Runway heading 219

 AIRPORT FREQUENCIES

 AIRPORT NEAR NAVIGATION AIDS
Type NDB Name Seo De Urgel Frequency 340 KHZ